createdAt,value
2022-08-17T00:01:52.043Z,13.07
2022-08-17T00:04:24.935Z,12.10
2022-08-17T00:06:54.480Z,12.60
2022-08-17T00:09:24.070Z,12.35
2022-08-17T00:12:34.933Z,11.73
2022-08-17T00:14:45.534Z,11.63
2022-08-17T00:17:15.781Z,12.02
2022-08-17T00:19:46.706Z,13.48
2022-08-17T00:22:31.479Z,12.55
2022-08-17T00:25:05.667Z,12.85
2022-08-17T00:27:35.284Z,13.43
2022-08-17T00:30:06.451Z,13.90
2022-08-17T00:33:11.614Z,13.13
2022-08-17T00:35:36.409Z,13.90
2022-08-17T00:38:09.757Z,14.30
2022-08-17T00:40:44.920Z,13.93
2022-08-17T00:43:18.692Z,13.35
2022-08-17T00:45:49.755Z,13.43
2022-08-17T00:48:29.223Z,14.05
2022-08-17T00:51:04.931Z,13.23
2022-08-17T00:53:35.869Z,13.60
2022-08-17T00:56:07.182Z,13.98
2022-08-17T00:58:37.513Z,13.45
2022-08-17T01:01:10.746Z,12.70
2022-08-17T01:03:41.147Z,13.00
2022-08-17T01:06:12.532Z,12.43
2022-08-17T01:08:42.705Z,11.80
2022-08-17T01:11:12.140Z,13.35
2022-08-17T01:13:42.845Z,11.85
2022-08-17T01:16:20.385Z,13.20
2022-08-17T01:18:54.533Z,12.77
2022-08-17T01:21:30.853Z,13.95
2022-08-17T01:24:02.318Z,13.75
2022-08-17T01:26:33.265Z,14.90
2022-08-17T01:29:04.033Z,16.73
2022-08-17T01:31:37.722Z,15.70
2022-08-17T01:34:08.796Z,15.27
2022-08-17T01:36:44.014Z,15.55
2022-08-17T01:39:18.164Z,15.65
2022-08-17T01:41:48.875Z,16.05
2022-08-17T01:44:18.434Z,16.40
2022-08-17T01:46:47.644Z,16.13
2022-08-17T01:49:19.619Z,15.70
2022-08-17T01:51:48.830Z,17.08
2022-08-17T01:54:24.472Z,17.13
2022-08-17T01:56:54.241Z,15.48
2022-08-17T01:59:26.403Z,16.10
2022-08-17T02:04:27.526Z,16.77
2022-08-17T02:06:56.980Z,15.55
2022-08-17T02:09:30.190Z,14.35
2022-08-17T02:12:47.939Z,14.50
2022-08-17T02:14:53.193Z,16.10
2022-08-17T02:17:22.798Z,14.80
2022-08-17T02:19:51.889Z,15.82
2022-08-17T02:22:21.940Z,15.35
2022-08-17T02:24:58.975Z,16.35
2022-08-17T02:27:31.875Z,16.67
2022-08-17T02:30:04.238Z,16.98
2022-08-17T02:32:54.361Z,17.55
2022-08-17T02:35:24.311Z,16.48
2022-08-17T02:37:55.661Z,18.65
2022-08-17T02:40:36.401Z,17.58
2022-08-17T02:43:07.638Z,17.35
2022-08-17T02:45:38.131Z,17.90
2022-08-17T02:48:07.951Z,16.70
2022-08-17T02:50:37.082Z,16.98
2022-08-17T02:53:06.756Z,17.40
2022-08-17T02:55:42.852Z,17.42
2022-08-17T02:58:13.560Z,17.00
2022-08-17T03:00:44.415Z,15.85
2022-08-17T03:03:18.796Z,16.95
2022-08-17T03:05:51.343Z,16.63
2022-08-17T03:08:23.685Z,17.23
2022-08-17T03:10:54.542Z,16.40
2022-08-17T03:13:25.618Z,16.17
2022-08-17T03:15:55.255Z,16.20
2022-08-17T03:18:26.383Z,17.67
2022-08-17T03:20:56.125Z,16.73
2022-08-17T03:23:25.261Z,16.77
2022-08-17T03:25:56.747Z,16.65
2022-08-17T03:28:35.573Z,18.20
2022-08-17T03:31:11.200Z,17.65
2022-08-17T03:33:43.514Z,17.35
2022-08-17T03:36:13.300Z,19.35
2022-08-17T03:38:42.936Z,18.25
2022-08-17T03:41:21.415Z,16.58
2022-08-17T03:43:50.561Z,18.85
2022-08-17T03:46:40.164Z,15.93
2022-08-17T03:49:28.361Z,17.27
2022-08-17T03:52:15.635Z,17.10
2022-08-17T03:55:03.596Z,16.80
2022-08-17T03:57:34.529Z,18.52
2022-08-17T04:00:04.880Z,18.90
2022-08-17T04:02:41.816Z,19.17
2022-08-17T04:05:11.163Z,17.30
2022-08-17T04:07:41.979Z,18.52
2022-08-17T04:10:11.455Z,16.58
2022-08-17T04:12:47.251Z,18.30
2022-08-17T04:15:20.730Z,18.85
2022-08-17T04:17:50.179Z,17.23
2022-08-17T04:20:20.351Z,18.42
2022-08-17T04:23:00.312Z,21.75
2022-08-17T04:25:30.167Z,21.08
2022-08-17T04:28:04.005Z,19.60
2022-08-17T04:30:38.017Z,19.63
2022-08-17T04:33:09.046Z,20.30
2022-08-17T04:35:41.835Z,21.55
2022-08-17T04:38:12.357Z,22.70
2022-08-17T04:40:59.189Z,21.42
2022-08-17T04:43:30.974Z,22.98
2022-08-17T04:46:01.769Z,21.20
2022-08-17T04:48:37.007Z,21.80
2022-08-17T04:51:10.169Z,21.35
2022-08-17T04:53:40.531Z,21.00
2022-08-17T04:56:16.200Z,22.08
2022-08-17T04:58:49.932Z,20.13
2022-08-17T05:01:23.769Z,18.65
2022-08-17T05:03:57.311Z,20.50
2022-08-17T05:06:26.761Z,19.25
2022-08-17T05:08:56.465Z,20.85
2022-08-17T05:11:26.529Z,20.10
2022-08-17T05:13:58.811Z,20.65
2022-08-17T05:19:03.538Z,19.35
2022-08-17T05:21:33.476Z,19.38
2022-08-17T05:24:05.970Z,19.30
2022-08-17T05:26:38.335Z,18.80
2022-08-17T05:29:12.207Z,21.23
2022-08-17T05:31:46.065Z,20.17
2022-08-17T05:34:15.769Z,22.63
2022-08-17T05:36:45.924Z,19.75
2022-08-17T05:39:18.241Z,19.67
2022-08-17T05:44:21.307Z,20.00
2022-08-17T05:46:52.452Z,18.45
2022-08-17T05:49:32.437Z,18.02
2022-08-17T05:52:23.768Z,18.30
2022-08-17T05:54:59.755Z,17.00
2022-08-17T05:57:53.928Z,17.30
2022-08-17T06:00:30.918Z,17.08
2022-08-17T06:03:15.939Z,16.45
2022-08-17T06:05:51.994Z,16.73
2022-08-17T06:08:28.629Z,18.58
2022-08-17T06:11:01.894Z,18.40
2022-08-17T06:13:40.099Z,17.75
2022-08-17T06:16:32.899Z,18.42
2022-08-17T06:19:08.051Z,17.50
2022-08-17T06:21:52.410Z,18.50
2022-08-17T06:24:35.556Z,18.10
2022-08-17T06:27:11.233Z,19.83
2022-08-17T06:29:45.507Z,19.42
2022-08-17T06:32:17.400Z,21.50
2022-08-17T06:34:54.556Z,20.90
2022-08-17T06:37:44.380Z,20.60
2022-08-17T06:40:23.921Z,21.25
2022-08-17T06:43:05.681Z,21.65
2022-08-17T06:45:39.944Z,22.27
2022-08-17T06:48:16.039Z,23.80
2022-08-17T06:50:47.354Z,24.83
2022-08-17T06:53:26.336Z,25.42
2022-08-17T06:56:00.244Z,26.45
2022-08-17T06:58:40.098Z,29.02
2022-08-17T07:01:11.811Z,28.77
2022-08-17T07:03:50.382Z,29.33
2022-08-17T07:06:24.835Z,28.33
2022-08-17T07:08:58.976Z,26.40
2022-08-17T07:11:32.162Z,25.13
2022-08-17T07:14:06.043Z,29.33
2022-08-17T07:16:37.937Z,28.55
2022-08-17T07:19:10.840Z,28.50
2022-08-17T07:21:46.087Z,27.20
2022-08-17T07:24:30.674Z,29.27
2022-08-17T07:27:08.399Z,29.90
2022-08-17T07:29:50.098Z,30.05
2022-08-17T07:32:24.941Z,31.27
2022-08-17T07:35:13.025Z,30.98
2022-08-17T07:37:53.447Z,30.30
2022-08-17T07:40:27.006Z,30.92
2022-08-17T07:43:08.731Z,31.85
2022-08-17T07:46:21.817Z,32.22
2022-08-17T07:48:53.726Z,33.53
2022-08-17T07:53:53.648Z,37.45
2022-08-17T07:56:39.138Z,39.25
2022-08-17T07:59:16.501Z,37.65
2022-08-17T08:01:48.691Z,40.58
2022-08-17T08:07:26.561Z,41.72
2022-08-17T08:10:08.160Z,40.28
2022-08-17T08:12:42.381Z,40.90
2022-08-17T08:15:21.495Z,39.67
2022-08-17T08:17:53.374Z,43.08
2022-08-17T08:20:52.231Z,39.13
2022-08-17T08:23:31.943Z,38.42
2022-08-17T08:26:07.879Z,37.28
2022-08-17T08:28:43.407Z,35.67
2022-08-17T08:31:18.538Z,37.75
2022-08-17T08:33:51.932Z,38.10
2022-08-17T08:37:02.076Z,36.55
2022-08-17T08:39:21.070Z,39.10
2022-08-17T08:42:02.820Z,37.15
2022-08-17T08:45:00.029Z,36.97
2022-08-17T08:47:40.625Z,38.13
2022-08-17T08:50:37.808Z,35.28
2022-08-17T08:53:17.609Z,33.63
2022-08-17T08:55:50.223Z,32.05
2022-08-17T08:58:31.836Z,30.65
2022-08-17T09:01:22.340Z,32.20
2022-08-17T09:04:19.992Z,31.95
2022-08-17T09:07:03.101Z,28.83
2022-08-17T09:09:37.998Z,29.55
2022-08-17T09:12:11.215Z,30.23
2022-08-17T09:14:47.333Z,31.25
2022-08-17T09:17:21.130Z,30.42
2022-08-17T09:19:54.513Z,29.38
2022-08-17T09:22:31.300Z,29.20
2022-08-17T09:25:06.859Z,25.92
2022-08-17T09:27:40.166Z,26.55
2022-08-17T09:30:15.361Z,25.25
2022-08-17T09:32:52.176Z,24.50
2022-08-17T09:35:23.934Z,23.60
2022-08-17T09:38:01.277Z,25.15
2022-08-17T09:40:35.837Z,23.45
2022-08-17T09:45:37.786Z,24.27
2022-08-17T09:48:27.597Z,26.23
2022-08-17T09:51:06.789Z,25.83
2022-08-17T09:53:40.279Z,25.60
2022-08-17T09:56:15.679Z,24.25
2022-08-17T09:59:03.813Z,21.92
2022-08-17T10:01:48.276Z,21.08
2022-08-17T10:04:32.881Z,23.33
2022-08-17T10:07:06.059Z,21.42
2022-08-17T10:09:44.152Z,21.92
2022-08-17T10:12:21.449Z,20.70
2022-08-17T10:15:07.973Z,21.85
2022-08-17T10:17:54.075Z,20.55
2022-08-17T10:20:28.303Z,20.13
2022-08-17T10:23:18.730Z,20.38
2022-08-17T10:26:10.409Z,22.10
2022-08-17T10:28:41.570Z,19.40
2022-08-17T10:31:34.680Z,23.15
2022-08-17T10:34:18.091Z,21.92
2022-08-17T10:36:52.539Z,22.98
2022-08-17T10:39:27.945Z,21.55
2022-08-17T10:42:05.275Z,22.58
2022-08-17T10:44:44.495Z,21.33
2022-08-17T10:47:16.571Z,20.13
2022-08-17T10:52:39.920Z,19.83
2022-08-17T10:55:14.148Z,19.25
2022-08-17T10:57:46.723Z,18.27
2022-08-17T11:00:49.366Z,20.10
2022-08-17T11:03:21.628Z,18.60
2022-08-17T11:06:06.315Z,19.05
2022-08-17T11:08:56.749Z,18.73
2022-08-17T11:11:35.972Z,19.42
2022-08-17T11:14:19.104Z,16.65
2022-08-17T11:16:59.627Z,19.55
2022-08-17T11:19:43.540Z,17.63
2022-08-17T11:22:24.352Z,21.70
2022-08-17T11:24:57.938Z,19.23
2022-08-17T11:27:30.551Z,16.70
2022-08-17T11:30:02.759Z,18.23
2022-08-17T11:32:37.859Z,16.38
2022-08-17T11:35:29.767Z,17.23
2022-08-17T11:38:15.849Z,16.67
2022-08-17T11:41:00.534Z,16.15
2022-08-17T11:43:52.391Z,15.75
2022-08-17T11:46:51.844Z,16.60
2022-08-17T11:49:42.201Z,18.50
2022-08-17T11:52:29.928Z,18.88
2022-08-17T11:55:17.776Z,17.80
2022-08-17T11:58:06.751Z,20.30
2022-08-17T12:00:51.978Z,18.60
2022-08-17T12:03:23.576Z,18.50
2022-08-17T12:05:54.602Z,18.52
2022-08-17T12:08:24.472Z,16.40
2022-08-17T12:10:59.376Z,16.70
2022-08-17T12:13:32.792Z,17.15
2022-08-17T12:16:16.584Z,15.52
2022-08-17T12:18:52.531Z,16.75
2022-08-17T12:21:25.642Z,17.15
2022-08-17T12:24:00.613Z,16.55
2022-08-17T12:26:34.630Z,16.17
2022-08-17T12:29:05.638Z,16.65
2022-08-17T12:31:45.331Z,14.63
2022-08-17T12:34:16.734Z,16.08
2022-08-17T12:36:50.197Z,15.02
2022-08-17T12:39:21.630Z,13.98
2022-08-17T12:42:01.983Z,14.27
2022-08-17T12:44:35.739Z,12.55
2022-08-17T12:47:22.199Z,13.20
2022-08-17T12:49:52.785Z,13.13
2022-08-17T12:52:24.983Z,13.93
2022-08-17T12:54:55.992Z,15.85
2022-08-17T12:57:26.458Z,13.20
2022-08-17T12:59:59.625Z,14.45
2022-08-17T13:02:50.383Z,12.35
2022-08-17T13:05:28.428Z,11.73
2022-08-17T13:08:02.127Z,11.07
2022-08-17T13:10:36.565Z,11.80
2022-08-17T13:13:21.304Z,10.77
2022-08-17T13:15:56.580Z,10.32
2022-08-17T13:18:39.066Z,10.25
2022-08-17T13:21:22.508Z,11.40
2022-08-17T13:24:02.725Z,9.88
2022-08-17T13:26:34.987Z,10.18
2022-08-17T13:29:07.122Z,9.50
2022-08-17T13:31:52.674Z,10.02
2022-08-17T13:34:37.507Z,10.27
2022-08-17T13:37:33.647Z,10.48
2022-08-17T13:40:07.849Z,10.07
2022-08-17T13:42:52.628Z,8.38
2022-08-17T13:45:39.190Z,7.70
2022-08-17T13:48:21.389Z,7.93
2022-08-17T13:51:08.942Z,7.18
2022-08-17T13:53:51.451Z,6.70
2022-08-17T13:56:33.539Z,6.40
2022-08-17T13:59:12.324Z,7.10
2022-08-17T14:01:43.014Z,5.82
2022-08-17T14:04:13.453Z,5.95
2022-08-17T14:06:52.275Z,5.53
2022-08-17T14:09:25.804Z,5.65
2022-08-17T14:11:56.095Z,5.55
2022-08-17T14:14:26.091Z,5.70
2022-08-17T14:16:58.302Z,5.00
2022-08-17T14:19:28.354Z,4.50
2022-08-17T14:22:00.895Z,5.78
2022-08-17T14:24:33.630Z,4.60
2022-08-17T14:27:04.968Z,4.50
2022-08-17T14:29:39.025Z,4.50
2022-08-17T14:32:13.504Z,4.85
2022-08-17T14:34:42.957Z,4.72
2022-08-17T14:37:15.292Z,4.65
2022-08-17T14:39:46.274Z,3.92
2022-08-17T14:42:18.006Z,4.20
2022-08-17T14:44:48.284Z,4.30
2022-08-17T14:47:17.712Z,5.47
2022-08-17T14:49:48.404Z,5.55
2022-08-17T14:52:18.549Z,5.63
2022-08-17T14:54:51.428Z,5.93
2022-08-17T14:57:34.094Z,5.70
2022-08-17T15:00:04.317Z,4.97
2022-08-17T15:02:44.081Z,6.00
2022-08-17T15:05:15.167Z,5.80
2022-08-17T15:07:45.027Z,6.13
2022-08-17T15:10:16.384Z,6.07
2022-08-17T15:12:49.362Z,6.18
2022-08-17T15:15:19.692Z,6.82
2022-08-17T15:17:54.665Z,5.53
2022-08-17T15:20:26.454Z,5.50
2022-08-17T15:22:57.823Z,6.30
2022-08-17T15:25:32.127Z,5.15
2022-08-17T15:28:02.090Z,5.88
2022-08-17T15:30:35.184Z,5.00
2022-08-17T15:33:05.095Z,5.25
2022-08-17T15:35:39.757Z,5.63
2022-08-17T15:38:11.950Z,5.35
2022-08-17T15:40:44.771Z,5.35
2022-08-17T15:43:27.749Z,5.38
2022-08-17T15:46:00.662Z,4.60
2022-08-17T15:48:41.893Z,5.65
2022-08-17T15:51:13.107Z,5.20
2022-08-17T15:53:43.454Z,4.85
2022-08-17T15:56:15.434Z,4.97
2022-08-17T15:58:48.844Z,4.80
2022-08-17T16:03:01.421Z,5.15
2022-08-17T16:04:27.236Z,4.72
2022-08-17T16:07:00.931Z,4.95
2022-08-17T16:09:30.945Z,5.35
2022-08-17T16:12:11.920Z,5.30
2022-08-17T16:14:41.638Z,5.38
2022-08-17T16:17:39.052Z,5.03
2022-08-17T16:20:05.211Z,7.43
2022-08-17T16:22:36.597Z,5.53
2022-08-17T16:25:07.255Z,5.80
2022-08-17T16:27:38.031Z,5.32
2022-08-17T16:30:08.010Z,5.07
2022-08-17T16:32:38.067Z,5.18
2022-08-17T16:35:08.998Z,5.05
2022-08-17T16:37:39.578Z,5.30
2022-08-17T16:40:12.024Z,4.90
2022-08-17T16:42:44.126Z,5.45
2022-08-17T16:45:17.104Z,5.78
2022-08-17T16:47:49.190Z,5.60
2022-08-17T16:50:19.802Z,5.65
2022-08-17T16:52:50.182Z,5.57
2022-08-17T16:55:21.282Z,5.82
2022-08-17T16:57:54.921Z,5.35
2022-08-17T17:00:24.797Z,5.88
2022-08-17T17:02:54.682Z,5.07
2022-08-17T17:05:28.104Z,4.97
2022-08-17T17:08:02.127Z,5.72
2022-08-17T17:10:34.430Z,5.90
2022-08-17T17:13:06.479Z,5.75
2022-08-17T17:15:41.525Z,6.78
2022-08-17T17:18:15.614Z,6.80
2022-08-17T17:20:49.322Z,6.32
2022-08-17T17:23:29.165Z,7.32
2022-08-17T17:26:10.125Z,6.90
2022-08-17T17:28:48.816Z,7.03
2022-08-17T17:31:19.792Z,7.53
2022-08-17T17:33:55.399Z,7.43
2022-08-17T17:36:29.235Z,7.60
2022-08-17T17:39:05.388Z,8.50
2022-08-17T17:41:44.223Z,8.65
2022-08-17T17:44:17.995Z,7.78
2022-08-17T17:46:55.293Z,8.45
2022-08-17T17:49:26.011Z,8.98
2022-08-17T17:52:10.239Z,8.35
2022-08-17T17:54:49.787Z,8.77
2022-08-17T17:57:24.840Z,8.68
2022-08-17T18:00:00.954Z,8.95
2022-08-17T18:02:51.284Z,9.68
2022-08-17T18:05:44.446Z,9.35
2022-08-17T18:08:19.444Z,9.43
2022-08-17T18:10:58.341Z,9.70
2022-08-17T18:13:30.266Z,9.48
2022-08-17T18:16:01.932Z,9.75
2022-08-17T18:18:38.901Z,9.60
2022-08-17T18:21:15.850Z,10.20
2022-08-17T18:23:54.101Z,11.30
2022-08-17T18:26:44.790Z,9.40
2022-08-17T18:29:17.111Z,10.75
2022-08-17T18:31:59.956Z,11.27
2022-08-17T18:34:48.902Z,10.52
2022-08-17T18:37:31.404Z,10.82
2022-08-17T18:42:32.207Z,10.30
2022-08-17T18:45:04.287Z,10.20
2022-08-17T18:47:39.367Z,10.45
2022-08-17T18:50:23.738Z,10.68
2022-08-17T18:52:55.343Z,10.77
2022-08-17T18:55:30.451Z,11.07
2022-08-17T18:58:14.993Z,12.00
2022-08-17T19:00:46.449Z,12.23
2022-08-17T19:03:25.848Z,12.82
2022-08-17T19:05:56.567Z,11.65
2022-08-17T19:08:35.909Z,12.40
2022-08-17T19:11:17.461Z,11.57
2022-08-17T19:13:48.761Z,12.68
2022-08-17T19:16:20.601Z,13.15
2022-08-17T19:18:53.985Z,12.88
2022-08-17T19:21:25.383Z,11.93
2022-08-17T19:23:59.019Z,11.80
2022-08-17T19:26:50.642Z,10.95
2022-08-17T19:29:37.005Z,11.63
2022-08-17T19:32:08.493Z,11.07
2022-08-17T19:34:43.140Z,11.43
2022-08-17T19:37:18.180Z,11.65
2022-08-17T19:39:52.736Z,11.18
2022-08-17T19:42:28.494Z,10.50
2022-08-17T19:45:02.429Z,10.30
2022-08-17T19:47:54.442Z,10.43
2022-08-17T19:50:31.036Z,10.27
2022-08-17T19:53:03.732Z,10.07
2022-08-17T19:55:43.843Z,10.40
2022-08-17T19:58:21.381Z,10.10
2022-08-17T20:00:52.449Z,10.15
2022-08-17T20:03:24.806Z,10.85
2022-08-17T20:06:13.803Z,10.85
2022-08-17T20:08:49.484Z,10.98
2022-08-17T20:11:22.164Z,11.15
2022-08-17T20:13:57.446Z,11.48
2022-08-17T20:16:26.956Z,11.55
2022-08-17T20:19:00.187Z,11.43
2022-08-17T20:21:37.408Z,11.38
2022-08-17T20:24:08.106Z,12.10
2022-08-17T20:26:47.880Z,11.90
2022-08-17T20:29:37.807Z,13.50
2022-08-17T20:32:16.555Z,12.27
2022-08-17T20:34:47.858Z,12.50
2022-08-17T20:37:31.015Z,13.57
2022-08-17T20:40:20.737Z,12.60
2022-08-17T20:42:53.631Z,13.38
2022-08-17T20:45:41.926Z,14.43
2022-08-17T20:48:36.072Z,14.68
2022-08-17T20:51:19.887Z,13.63
2022-08-17T20:54:08.061Z,15.45
2022-08-17T20:56:50.280Z,14.60
2022-08-17T20:59:38.432Z,15.15
2022-08-17T21:02:18.561Z,14.25
2022-08-17T21:05:00.219Z,14.43
2022-08-17T21:07:33.139Z,15.67
2022-08-17T21:10:16.128Z,15.50
2022-08-17T21:12:50.455Z,14.95
2022-08-17T21:15:30.977Z,15.13
2022-08-17T21:18:06.590Z,14.40
2022-08-17T21:20:40.847Z,14.55
2022-08-17T21:23:17.512Z,13.88
2022-08-17T21:26:07.208Z,12.57
2022-08-17T21:29:00.230Z,13.45
2022-08-17T21:31:34.482Z,13.85
2022-08-17T21:34:22.353Z,13.60
2022-08-17T21:36:51.856Z,12.85
2022-08-17T21:39:30.517Z,13.48
2022-08-17T21:42:04.510Z,12.97
2022-08-17T21:44:35.683Z,12.95
2022-08-17T21:47:16.582Z,14.07
2022-08-17T21:49:45.737Z,13.45
2022-08-17T21:52:16.010Z,13.93
2022-08-17T21:54:51.019Z,12.80
2022-08-17T21:57:23.249Z,14.13
2022-08-17T21:59:54.033Z,13.05
2022-08-17T22:02:24.788Z,12.05
2022-08-17T22:04:58.771Z,12.77
2022-08-17T22:07:38.801Z,12.63
2022-08-17T22:10:08.990Z,13.02
2022-08-17T22:12:42.611Z,12.60
2022-08-17T22:15:17.725Z,12.60
2022-08-17T22:17:48.934Z,12.30
2022-08-17T22:20:20.354Z,14.07
2022-08-17T22:23:24.668Z,13.68
2022-08-17T22:26:01.680Z,13.30
2022-08-17T22:28:40.007Z,12.45
2022-08-17T22:31:10.339Z,13.90
2022-08-17T22:33:45.979Z,12.57
2022-08-17T22:36:24.627Z,12.40
2022-08-17T22:38:56.217Z,13.43
2022-08-17T22:41:35.309Z,13.03
2022-08-17T22:44:17.421Z,13.40
2022-08-17T22:46:52.099Z,13.00
2022-08-17T22:49:26.778Z,13.30
2022-08-17T22:52:03.596Z,13.30
2022-08-17T22:54:50.424Z,12.65
2022-08-17T22:57:52.363Z,12.95
2022-08-17T23:00:37.397Z,13.05
2022-08-17T23:03:09.260Z,13.13
2022-08-17T23:08:07.944Z,12.82
2022-08-17T23:10:37.742Z,11.80
2022-08-17T23:13:08.921Z,13.00
2022-08-17T23:15:41.035Z,12.70
2022-08-17T23:20:42.773Z,11.98
2022-08-17T23:23:15.100Z,12.15
2022-08-17T23:25:46.779Z,12.00
2022-08-17T23:28:16.925Z,11.75
2022-08-17T23:30:48.703Z,11.23
2022-08-17T23:33:21.552Z,11.25
2022-08-17T23:35:51.094Z,12.07
2022-08-17T23:38:20.309Z,10.10
2022-08-17T23:40:49.614Z,10.20
2022-08-17T23:43:25.613Z,9.88
2022-08-17T23:45:59.675Z,9.68
2022-08-17T23:48:35.574Z,9.50
2022-08-17T23:51:10.789Z,8.73
2022-08-17T23:53:42.809Z,9.25
2022-08-17T23:56:12.022Z,8.98
2022-08-17T23:58:43.417Z,8.25
